sensor_id;sensor_type;location;lat;lon;timestamp;P1;durP1;ratioP1;P2;durP2;ratioP2
75932;SDS011;64803;52.356;5.310;2023-03-08T00:00:15;6.60;;;1.83;;
75932;SDS011;64803;52.356;5.310;2023-03-08T00:02:43;6.65;;;1.60;;
75932;SDS011;64803;52.356;5.310;2023-03-08T00:05:09;5.65;;;1.70;;
75932;SDS011;64803;52.356;5.310;2023-03-08T00:07:35;8.23;;;1.83;;
75932;SDS011;64803;52.356;5.310;2023-03-08T00:10:02;5.90;;;1.80;;
75932;SDS011;64803;52.356;5.310;2023-03-08T00:12:29;8.63;;;2.10;;
75932;SDS011;64803;52.356;5.310;2023-03-08T00:14:55;8.75;;;2.15;;
75932;SDS011;64803;52.356;5.310;2023-03-08T00:17:21;5.63;;;1.90;;
75932;SDS011;64803;52.356;5.310;2023-03-08T00:19:50;8.50;;;2.13;;
75932;SDS011;64803;52.356;5.310;2023-03-08T00:22:16;5.05;;;1.50;;
75932;SDS011;64803;52.356;5.310;2023-03-08T00:24:42;5.03;;;1.75;;
75932;SDS011;64803;52.356;5.310;2023-03-08T00:27:08;6.90;;;1.58;;
75932;SDS011;64803;52.356;5.310;2023-03-08T00:29:34;9.50;;;1.50;;
75932;SDS011;64803;52.356;5.310;2023-03-08T00:32:00;4.78;;;1.27;;
75932;SDS011;64803;52.356;5.310;2023-03-08T00:34:26;3.63;;;1.20;;
75932;SDS011;64803;52.356;5.310;2023-03-08T00:36:52;6.38;;;1.75;;
75932;SDS011;64803;52.356;5.310;2023-03-08T00:39:18;4.88;;;1.40;;
75932;SDS011;64803;52.356;5.310;2023-03-08T00:41:44;5.20;;;1.13;;
75932;SDS011;64803;52.356;5.310;2023-03-08T00:44:12;4.53;;;1.10;;
75932;SDS011;64803;52.356;5.310;2023-03-08T00:46:38;5.38;;;1.40;;
75932;SDS011;64803;52.356;5.310;2023-03-08T00:49:04;3.70;;;1.10;;
75932;SDS011;64803;52.356;5.310;2023-03-08T00:51:30;7.50;;;1.38;;
75932;SDS011;64803;52.356;5.310;2023-03-08T00:53:56;3.63;;;1.33;;
75932;SDS011;64803;52.356;5.310;2023-03-08T00:56:22;3.92;;;1.33;;
75932;SDS011;64803;52.356;5.310;2023-03-08T00:58:49;4.57;;;1.30;;
75932;SDS011;64803;52.356;5.310;2023-03-08T01:01:16;5.15;;;1.33;;
75932;SDS011;64803;52.356;5.310;2023-03-08T01:03:45;0.75;;;0.30;;
75932;SDS011;64803;52.356;5.310;2023-03-08T01:06:12;2.75;;;1.15;;
75932;SDS011;64803;52.356;5.310;2023-03-08T01:08:40;3.13;;;0.88;;
75932;SDS011;64803;52.356;5.310;2023-03-08T01:11:11;5.15;;;1.42;;
75932;SDS011;64803;52.356;5.310;2023-03-08T01:13:40;5.85;;;1.67;;
75932;SDS011;64803;52.356;5.310;2023-03-08T01:16:13;6.20;;;1.70;;
75932;SDS011;64803;52.356;5.310;2023-03-08T01:18:44;4.47;;;1.50;;
75932;SDS011;64803;52.356;5.310;2023-03-08T01:21:10;7.13;;;2.33;;
75932;SDS011;64803;52.356;5.310;2023-03-08T01:23:36;5.57;;;1.63;;
75932;SDS011;64803;52.356;5.310;2023-03-08T01:26:03;7.05;;;1.52;;
75932;SDS011;64803;52.356;5.310;2023-03-08T01:28:31;7.47;;;1.80;;
75932;SDS011;64803;52.356;5.310;2023-03-08T01:31:05;4.57;;;1.70;;
75932;SDS011;64803;52.356;5.310;2023-03-08T01:33:35;4.93;;;1.70;;
75932;SDS011;64803;52.356;5.310;2023-03-08T01:36:05;6.80;;;1.60;;
75932;SDS011;64803;52.356;5.310;2023-03-08T01:38:33;5.40;;;1.92;;
75932;SDS011;64803;52.356;5.310;2023-03-08T01:41:00;5.32;;;1.63;;
75932;SDS011;64803;52.356;5.310;2023-03-08T01:51:30;6.75;;;1.95;;
75932;SDS011;64803;52.356;5.310;2023-03-08T01:54:03;5.63;;;1.55;;
75932;SDS011;64803;52.356;5.310;2023-03-08T01:56:46;5.80;;;1.73;;
75932;SDS011;64803;52.356;5.310;2023-03-08T01:59:14;4.50;;;1.60;;
75932;SDS011;64803;52.356;5.310;2023-03-08T02:01:40;5.18;;;1.90;;
75932;SDS011;64803;52.356;5.310;2023-03-08T02:04:07;7.60;;;2.10;;
75932;SDS011;64803;52.356;5.310;2023-03-08T02:06:35;4.50;;;1.60;;
75932;SDS011;64803;52.356;5.310;2023-03-08T02:09:03;6.15;;;1.67;;
75932;SDS011;64803;52.356;5.310;2023-03-08T02:11:33;6.00;;;1.65;;
75932;SDS011;64803;52.356;5.310;2023-03-08T02:14:02;6.80;;;1.65;;
75932;SDS011;64803;52.356;5.310;2023-03-08T02:16:28;7.45;;;2.20;;
75932;SDS011;64803;52.356;5.310;2023-03-08T02:18:59;4.80;;;1.90;;
75932;SDS011;64803;52.356;5.310;2023-03-08T02:21:28;5.13;;;1.58;;
75932;SDS011;64803;52.356;5.310;2023-03-08T02:24:01;5.43;;;2.05;;
75932;SDS011;64803;52.356;5.310;2023-03-08T02:26:32;6.97;;;2.05;;
75932;SDS011;64803;52.356;5.310;2023-03-08T02:29:00;5.13;;;1.80;;
75932;SDS011;64803;52.356;5.310;2023-03-08T02:31:26;6.15;;;1.98;;
75932;SDS011;64803;52.356;5.310;2023-03-08T02:33:52;4.22;;;1.45;;
75932;SDS011;64803;52.356;5.310;2023-03-08T02:36:18;5.32;;;1.90;;
75932;SDS011;64803;52.356;5.310;2023-03-08T02:38:44;5.25;;;1.60;;
75932;SDS011;64803;52.356;5.310;2023-03-08T02:41:10;10.00;;;2.00;;
75932;SDS011;64803;52.356;5.310;2023-03-08T02:43:36;4.55;;;1.75;;
75932;SDS011;64803;52.356;5.310;2023-03-08T02:46:02;5.35;;;1.70;;
75932;SDS011;64803;52.356;5.310;2023-03-08T02:48:30;6.40;;;2.70;;
75932;SDS011;64803;52.356;5.310;2023-03-08T02:50:57;7.47;;;1.73;;
75932;SDS011;64803;52.356;5.310;2023-03-08T02:53:23;7.45;;;2.17;;
75932;SDS011;64803;52.356;5.310;2023-03-08T02:55:49;7.15;;;1.73;;
75932;SDS011;64803;52.356;5.310;2023-03-08T02:58:15;5.07;;;1.90;;
75932;SDS011;64803;52.356;5.310;2023-03-08T03:00:42;5.35;;;2.00;;
75932;SDS011;64803;52.356;5.310;2023-03-08T03:03:08;7.32;;;1.80;;
75932;SDS011;64803;52.356;5.310;2023-03-08T03:05:34;7.38;;;2.42;;
75932;SDS011;64803;52.356;5.310;2023-03-08T03:08:06;9.80;;;2.30;;
75932;SDS011;64803;52.356;5.310;2023-03-08T03:10:33;8.13;;;2.38;;
75932;SDS011;64803;52.356;5.310;2023-03-08T03:13:00;5.32;;;1.95;;
75932;SDS011;64803;52.356;5.310;2023-03-08T03:15:29;4.75;;;2.00;;
75932;SDS011;64803;52.356;5.310;2023-03-08T03:20:23;6.38;;;1.85;;
75932;SDS011;64803;52.356;5.310;2023-03-08T03:22:49;7.70;;;2.08;;
75932;SDS011;64803;52.356;5.310;2023-03-08T03:25:18;6.25;;;2.10;;
75932;SDS011;64803;52.356;5.310;2023-03-08T03:27:46;7.90;;;1.90;;
75932;SDS011;64803;52.356;5.310;2023-03-08T03:30:13;5.07;;;1.80;;
75932;SDS011;64803;52.356;5.310;2023-03-08T03:32:39;9.77;;;2.20;;
75932;SDS011;64803;52.356;5.310;2023-03-08T03:35:05;7.47;;;1.90;;
75932;SDS011;64803;52.356;5.310;2023-03-08T03:37:33;4.40;;;1.58;;
75932;SDS011;64803;52.356;5.310;2023-03-08T03:40:00;4.80;;;1.80;;
75932;SDS011;64803;52.356;5.310;2023-03-08T03:42:26;4.88;;;1.83;;
75932;SDS011;64803;52.356;5.310;2023-03-08T03:45:04;5.15;;;1.75;;
75932;SDS011;64803;52.356;5.310;2023-03-08T03:47:30;4.97;;;1.73;;
75932;SDS011;64803;52.356;5.310;2023-03-08T03:49:59;10.75;;;1.80;;
75932;SDS011;64803;52.356;5.310;2023-03-08T03:52:30;5.85;;;1.67;;
75932;SDS011;64803;52.356;5.310;2023-03-08T03:55:01;5.28;;;1.50;;
75932;SDS011;64803;52.356;5.310;2023-03-08T03:57:27;5.38;;;1.67;;
75932;SDS011;64803;52.356;5.310;2023-03-08T03:59:54;5.60;;;2.20;;
75932;SDS011;64803;52.356;5.310;2023-03-08T04:02:21;7.80;;;2.05;;
75932;SDS011;64803;52.356;5.310;2023-03-08T04:04:53;8.55;;;2.53;;
75932;SDS011;64803;52.356;5.310;2023-03-08T04:07:22;8.10;;;2.30;;
75932;SDS011;64803;52.356;5.310;2023-03-08T04:09:57;8.90;;;2.45;;
75932;SDS011;64803;52.356;5.310;2023-03-08T04:12:24;5.93;;;2.38;;
75932;SDS011;64803;52.356;5.310;2023-03-08T04:14:51;7.18;;;2.25;;
75932;SDS011;64803;52.356;5.310;2023-03-08T04:17:18;6.60;;;2.20;;
75932;SDS011;64803;52.356;5.310;2023-03-08T04:19:48;6.88;;;2.10;;
75932;SDS011;64803;52.356;5.310;2023-03-08T04:22:15;7.10;;;2.42;;
75932;SDS011;64803;52.356;5.310;2023-03-08T04:24:47;7.38;;;3.00;;
75932;SDS011;64803;52.356;5.310;2023-03-08T04:27:18;6.05;;;2.78;;
75932;SDS011;64803;52.356;5.310;2023-03-08T04:29:45;7.15;;;3.28;;
75932;SDS011;64803;52.356;5.310;2023-03-08T04:32:11;8.00;;;3.65;;
75932;SDS011;64803;52.356;5.310;2023-03-08T04:34:43;9.05;;;3.45;;
75932;SDS011;64803;52.356;5.310;2023-03-08T04:39:38;11.43;;;3.75;;
75932;SDS011;64803;52.356;5.310;2023-03-08T04:42:05;11.38;;;4.30;;
75932;SDS011;64803;52.356;5.310;2023-03-08T04:44:33;8.40;;;4.15;;
75932;SDS011;64803;52.356;5.310;2023-03-08T04:47:01;9.65;;;4.28;;
75932;SDS011;64803;52.356;5.310;2023-03-08T04:49:35;12.82;;;5.35;;
75932;SDS011;64803;52.356;5.310;2023-03-08T04:52:02;11.30;;;5.80;;
75932;SDS011;64803;52.356;5.310;2023-03-08T04:54:31;11.55;;;5.75;;
75932;SDS011;64803;52.356;5.310;2023-03-08T04:57:04;11.15;;;5.22;;
75932;SDS011;64803;52.356;5.310;2023-03-08T04:59:32;11.05;;;5.53;;
75932;SDS011;64803;52.356;5.310;2023-03-08T05:02:02;10.60;;;5.38;;
75932;SDS011;64803;52.356;5.310;2023-03-08T05:04:30;14.15;;;6.97;;
75932;SDS011;64803;52.356;5.310;2023-03-08T05:06:56;14.02;;;6.68;;
75932;SDS011;64803;52.356;5.310;2023-03-08T05:09:24;12.38;;;6.45;;
75932;SDS011;64803;52.356;5.310;2023-03-08T05:11:52;15.20;;;7.43;;
75932;SDS011;64803;52.356;5.310;2023-03-08T05:14:18;15.55;;;7.65;;
75932;SDS011;64803;52.356;5.310;2023-03-08T05:16:44;14.65;;;8.00;;
75932;SDS011;64803;52.356;5.310;2023-03-08T05:19:10;14.15;;;8.00;;
75932;SDS011;64803;52.356;5.310;2023-03-08T05:21:44;17.35;;;7.63;;
75932;SDS011;64803;52.356;5.310;2023-03-08T05:24:11;14.93;;;8.00;;
75932;SDS011;64803;52.356;5.310;2023-03-08T05:26:38;16.42;;;7.68;;
75932;SDS011;64803;52.356;5.310;2023-03-08T05:29:04;15.75;;;7.97;;
75932;SDS011;64803;52.356;5.310;2023-03-08T05:31:32;14.18;;;7.32;;
75932;SDS011;64803;52.356;5.310;2023-03-08T05:34:03;17.52;;;8.18;;
75932;SDS011;64803;52.356;5.310;2023-03-08T05:36:34;21.35;;;8.57;;
75932;SDS011;64803;52.356;5.310;2023-03-08T05:39:04;17.58;;;10.40;;
75932;SDS011;64803;52.356;5.310;2023-03-08T05:41:40;24.98;;;10.95;;
75932;SDS011;64803;52.356;5.310;2023-03-08T05:44:07;20.88;;;10.55;;
75932;SDS011;64803;52.356;5.310;2023-03-08T05:46:34;25.45;;;11.10;;
75932;SDS011;64803;52.356;5.310;2023-03-08T05:49:03;24.92;;;11.45;;
75932;SDS011;64803;52.356;5.310;2023-03-08T05:51:33;28.08;;;13.38;;
75932;SDS011;64803;52.356;5.310;2023-03-08T05:53:59;21.77;;;11.63;;
75932;SDS011;64803;52.356;5.310;2023-03-08T05:56:26;26.92;;;11.93;;
75932;SDS011;64803;52.356;5.310;2023-03-08T05:59:02;44.60;;;14.35;;
75932;SDS011;64803;52.356;5.310;2023-03-08T06:01:28;35.88;;;15.43;;
75932;SDS011;64803;52.356;5.310;2023-03-08T06:06:32;58.50;;;15.60;;
75932;SDS011;64803;52.356;5.310;2023-03-08T06:09:00;44.88;;;15.10;;
75932;SDS011;64803;52.356;5.310;2023-03-08T06:11:27;37.42;;;15.20;;
75932;SDS011;64803;52.356;5.310;2023-03-08T06:13:55;55.97;;;15.93;;
75932;SDS011;64803;52.356;5.310;2023-03-08T06:16:24;53.92;;;16.65;;
75932;SDS011;64803;52.356;5.310;2023-03-08T06:18:50;55.50;;;17.23;;
75932;SDS011;64803;52.356;5.310;2023-03-08T06:21:17;77.50;;;19.45;;
75932;SDS011;64803;52.356;5.310;2023-03-08T06:23:49;87.00;;;19.45;;
75932;SDS011;64803;52.356;5.310;2023-03-08T06:26:15;109.85;;;19.98;;
75932;SDS011;64803;52.356;5.310;2023-03-08T06:28:41;87.97;;;21.10;;
75932;SDS011;64803;52.356;5.310;2023-03-08T06:31:10;54.03;;;17.85;;
75932;SDS011;64803;52.356;5.310;2023-03-08T06:33:38;128.27;;;20.35;;
75932;SDS011;64803;52.356;5.310;2023-03-08T06:36:05;71.47;;;19.90;;
75932;SDS011;64803;52.356;5.310;2023-03-08T06:38:34;120.55;;;19.77;;
75932;SDS011;64803;52.356;5.310;2023-03-08T06:41:02;147.00;;;21.27;;
75932;SDS011;64803;52.356;5.310;2023-03-08T06:43:29;117.07;;;19.33;;
75932;SDS011;64803;52.356;5.310;2023-03-08T06:45:55;99.03;;;19.20;;
75932;SDS011;64803;52.356;5.310;2023-03-08T06:48:21;197.98;;;22.95;;
75932;SDS011;64803;52.356;5.310;2023-03-08T06:50:49;102.60;;;20.02;;
75932;SDS011;64803;52.356;5.310;2023-03-08T06:53:16;136.82;;;19.77;;
75932;SDS011;64803;52.356;5.310;2023-03-08T06:55:51;89.15;;;18.83;;
75932;SDS011;64803;52.356;5.310;2023-03-08T06:58:17;56.60;;;16.33;;
75932;SDS011;64803;52.356;5.310;2023-03-08T07:00:43;97.18;;;18.77;;
75932;SDS011;64803;52.356;5.310;2023-03-08T07:03:12;70.40;;;17.92;;
75932;SDS011;64803;52.356;5.310;2023-03-08T07:05:38;45.28;;;16.63;;
75932;SDS011;64803;52.356;5.310;2023-03-08T07:08:05;56.75;;;16.73;;
75932;SDS011;64803;52.356;5.310;2023-03-08T07:10:31;43.47;;;15.60;;
75932;SDS011;64803;52.356;5.310;2023-03-08T07:12:57;76.13;;;18.73;;
75932;SDS011;64803;52.356;5.310;2023-03-08T07:15:24;44.80;;;17.70;;
75932;SDS011;64803;52.356;5.310;2023-03-08T07:17:51;70.32;;;19.33;;
75932;SDS011;64803;52.356;5.310;2023-03-08T07:20:20;79.40;;;22.02;;
75932;SDS011;64803;52.356;5.310;2023-03-08T07:22:47;66.40;;;20.40;;
75932;SDS011;64803;52.356;5.310;2023-03-08T07:25:15;49.78;;;18.27;;
75932;SDS011;64803;52.356;5.310;2023-03-08T07:27:43;51.13;;;18.25;;
75932;SDS011;64803;52.356;5.310;2023-03-08T07:30:10;52.65;;;18.88;;
75932;SDS011;64803;52.356;5.310;2023-03-08T07:32:38;46.58;;;16.30;;
75932;SDS011;64803;52.356;5.310;2023-03-08T07:35:08;57.78;;;19.92;;
75932;SDS011;64803;52.356;5.310;2023-03-08T07:37:35;73.15;;;23.02;;
75932;SDS011;64803;52.356;5.310;2023-03-08T07:40:02;50.15;;;19.98;;
75932;SDS011;64803;52.356;5.310;2023-03-08T07:42:32;59.22;;;21.15;;
75932;SDS011;64803;52.356;5.310;2023-03-08T07:45:09;53.05;;;21.17;;
75932;SDS011;64803;52.356;5.310;2023-03-08T07:47:36;53.72;;;21.77;;
75932;SDS011;64803;52.356;5.310;2023-03-08T07:50:03;59.00;;;18.98;;
75932;SDS011;64803;52.356;5.310;2023-03-08T07:52:29;39.97;;;17.65;;
75932;SDS011;64803;52.356;5.310;2023-03-08T07:54:56;48.92;;;18.30;;
75932;SDS011;64803;52.356;5.310;2023-03-08T07:57:22;46.35;;;18.30;;
75932;SDS011;64803;52.356;5.310;2023-03-08T07:59:49;46.03;;;19.27;;
75932;SDS011;64803;52.356;5.310;2023-03-08T08:02:15;54.22;;;21.27;;
75932;SDS011;64803;52.356;5.310;2023-03-08T08:04:42;54.03;;;19.40;;
75932;SDS011;64803;52.356;5.310;2023-03-08T08:07:12;56.17;;;21.70;;
75932;SDS011;64803;52.356;5.310;2023-03-08T08:09:39;58.47;;;21.30;;
75932;SDS011;64803;52.356;5.310;2023-03-08T08:12:06;53.60;;;21.08;;
75932;SDS011;64803;52.356;5.310;2023-03-08T08:14:32;50.50;;;20.23;;
75932;SDS011;64803;52.356;5.310;2023-03-08T08:16:58;62.28;;;22.20;;
75932;SDS011;64803;52.356;5.310;2023-03-08T08:19:25;45.90;;;19.42;;
75932;SDS011;64803;52.356;5.310;2023-03-08T08:21:51;46.60;;;20.17;;
75932;SDS011;64803;52.356;5.310;2023-03-08T08:24:17;48.42;;;20.33;;
75932;SDS011;64803;52.356;5.310;2023-03-08T08:26:43;45.28;;;20.80;;
75932;SDS011;64803;52.356;5.310;2023-03-08T08:29:09;44.92;;;19.55;;
75932;SDS011;64803;52.356;5.310;2023-03-08T08:31:35;50.55;;;19.30;;
75932;SDS011;64803;52.356;5.310;2023-03-08T08:34:01;50.22;;;19.50;;
75932;SDS011;64803;52.356;5.310;2023-03-08T08:36:27;51.22;;;20.13;;
75932;SDS011;64803;52.356;5.310;2023-03-08T08:38:54;46.90;;;21.73;;
75932;SDS011;64803;52.356;5.310;2023-03-08T08:41:20;48.50;;;19.02;;
75932;SDS011;64803;52.356;5.310;2023-03-08T08:43:47;50.42;;;20.27;;
75932;SDS011;64803;52.356;5.310;2023-03-08T08:46:14;56.10;;;21.42;;
75932;SDS011;64803;52.356;5.310;2023-03-08T08:48:41;57.42;;;22.73;;
75932;SDS011;64803;52.356;5.310;2023-03-08T08:51:09;57.70;;;22.08;;
75932;SDS011;64803;52.356;5.310;2023-03-08T08:53:37;46.80;;;20.05;;
75932;SDS011;64803;52.356;5.310;2023-03-08T08:56:11;52.80;;;19.75;;
75932;SDS011;64803;52.356;5.310;2023-03-08T08:58:41;48.97;;;19.17;;
75932;SDS011;64803;52.356;5.310;2023-03-08T09:03:39;44.40;;;18.67;;
75932;SDS011;64803;52.356;5.310;2023-03-08T09:06:05;42.15;;;18.90;;
75932;SDS011;64803;52.356;5.310;2023-03-08T09:08:31;46.42;;;18.55;;
75932;SDS011;64803;52.356;5.310;2023-03-08T09:11:00;45.50;;;17.67;;
75932;SDS011;64803;52.356;5.310;2023-03-08T09:13:29;42.63;;;16.60;;
75932;SDS011;64803;52.356;5.310;2023-03-08T09:15:55;41.80;;;17.15;;
75932;SDS011;64803;52.356;5.310;2023-03-08T09:18:21;36.60;;;15.73;;
75932;SDS011;64803;52.356;5.310;2023-03-08T09:20:47;32.30;;;13.85;;
75932;SDS011;64803;52.356;5.310;2023-03-08T09:23:13;35.35;;;16.25;;
75932;SDS011;64803;52.356;5.310;2023-03-08T09:25:39;36.63;;;16.45;;
75932;SDS011;64803;52.356;5.310;2023-03-08T09:28:05;37.75;;;15.90;;
75932;SDS011;64803;52.356;5.310;2023-03-08T09:30:31;35.22;;;17.10;;
75932;SDS011;64803;52.356;5.310;2023-03-08T09:32:57;37.80;;;15.90;;
75932;SDS011;64803;52.356;5.310;2023-03-08T09:35:24;36.13;;;14.85;;
75932;SDS011;64803;52.356;5.310;2023-03-08T09:37:50;39.38;;;15.80;;
75932;SDS011;64803;52.356;5.310;2023-03-08T09:40:17;31.63;;;14.65;;
75932;SDS011;64803;52.356;5.310;2023-03-08T09:42:45;34.67;;;14.60;;
75932;SDS011;64803;52.356;5.310;2023-03-08T09:50:51;35.30;;;14.43;;
75932;SDS011;64803;52.356;5.310;2023-03-08T09:53:21;40.28;;;16.25;;
75932;SDS011;64803;52.356;5.310;2023-03-08T09:56:03;33.03;;;13.40;;
75932;SDS011;64803;52.356;5.310;2023-03-08T09:58:40;38.53;;;16.15;;
75932;SDS011;64803;52.356;5.310;2023-03-08T10:01:19;36.63;;;15.35;;
75932;SDS011;64803;52.356;5.310;2023-03-08T10:03:55;33.85;;;15.93;;
75932;SDS011;64803;52.356;5.310;2023-03-08T10:06:52;31.80;;;13.52;;
75932;SDS011;64803;52.356;5.310;2023-03-08T10:09:34;39.97;;;15.20;;
75932;SDS011;64803;52.356;5.310;2023-03-08T10:12:14;30.40;;;13.48;;
75932;SDS011;64803;52.356;5.310;2023-03-08T10:14:48;35.33;;;14.50;;
75932;SDS011;64803;52.356;5.310;2023-03-08T10:17:19;47.30;;;14.60;;
75932;SDS011;64803;52.356;5.310;2023-03-08T10:19:58;31.85;;;13.80;;
75932;SDS011;64803;52.356;5.310;2023-03-08T10:22:32;34.80;;;14.95;;
75932;SDS011;64803;52.356;5.310;2023-03-08T10:25:11;37.08;;;15.80;;
75932;SDS011;64803;52.356;5.310;2023-03-08T10:27:40;32.58;;;13.80;;
75932;SDS011;64803;52.356;5.310;2023-03-08T10:30:16;29.88;;;13.10;;
75932;SDS011;64803;52.356;5.310;2023-03-08T10:32:46;32.22;;;13.60;;
75932;SDS011;64803;52.356;5.310;2023-03-08T10:35:15;32.05;;;14.52;;
75932;SDS011;64803;52.356;5.310;2023-03-08T10:37:42;29.85;;;13.55;;
75932;SDS011;64803;52.356;5.310;2023-03-08T10:42:46;33.03;;;11.93;;
75932;SDS011;64803;52.356;5.310;2023-03-08T10:45:18;28.70;;;11.13;;
75932;SDS011;64803;52.356;5.310;2023-03-08T10:47:54;30.73;;;12.70;;
75932;SDS011;64803;52.356;5.310;2023-03-08T10:50:32;32.25;;;12.93;;
75932;SDS011;64803;52.356;5.310;2023-03-08T10:53:08;25.73;;;11.15;;
75932;SDS011;64803;52.356;5.310;2023-03-08T10:55:38;21.48;;;8.50;;
75932;SDS011;64803;52.356;5.310;2023-03-08T10:58:20;31.35;;;11.90;;
75932;SDS011;64803;52.356;5.310;2023-03-08T11:00:54;24.70;;;10.25;;
75932;SDS011;64803;52.356;5.310;2023-03-08T11:03:22;29.88;;;10.52;;
75932;SDS011;64803;52.356;5.310;2023-03-08T11:05:54;26.38;;;10.63;;
75932;SDS011;64803;52.356;5.310;2023-03-08T11:08:25;28.65;;;10.95;;
75932;SDS011;64803;52.356;5.310;2023-03-08T11:11:10;31.90;;;10.85;;
75932;SDS011;64803;52.356;5.310;2023-03-08T11:13:38;27.95;;;10.82;;
75932;SDS011;64803;52.356;5.310;2023-03-08T11:16:47;26.88;;;10.75;;
75932;SDS011;64803;52.356;5.310;2023-03-08T11:24:15;22.17;;;8.60;;
75932;SDS011;64803;52.356;5.310;2023-03-08T11:26:50;21.85;;;8.38;;
75932;SDS011;64803;52.356;5.310;2023-03-08T11:29:24;18.55;;;7.70;;
75932;SDS011;64803;52.356;5.310;2023-03-08T11:37:30;24.40;;;9.50;;
75932;SDS011;64803;52.356;5.310;2023-03-08T11:42:52;28.00;;;10.88;;
75932;SDS011;64803;52.356;5.310;2023-03-08T11:48:17;26.90;;;10.57;;
75932;SDS011;64803;52.356;5.310;2023-03-08T11:51:13;26.25;;;11.10;;
75932;SDS011;64803;52.356;5.310;2023-03-08T11:53:45;29.65;;;11.85;;
75932;SDS011;64803;52.356;5.310;2023-03-08T12:00:03;20.02;;;8.98;;
75932;SDS011;64803;52.356;5.310;2023-03-08T12:07:07;21.10;;;9.02;;
75932;SDS011;64803;52.356;5.310;2023-03-08T12:15:04;19.15;;;6.85;;
75932;SDS011;64803;52.356;5.310;2023-03-08T12:17:39;27.27;;;10.73;;
75932;SDS011;64803;52.356;5.310;2023-03-08T12:20:14;28.40;;;9.57;;
75932;SDS011;64803;52.356;5.310;2023-03-08T12:22:45;22.42;;;7.28;;
75932;SDS011;64803;52.356;5.310;2023-03-08T12:28:03;23.00;;;8.25;;
75932;SDS011;64803;52.356;5.310;2023-03-08T12:30:34;24.50;;;8.80;;
75932;SDS011;64803;52.356;5.310;2023-03-08T12:33:10;24.73;;;8.70;;
75932;SDS011;64803;52.356;5.310;2023-03-08T12:35:48;19.95;;;6.53;;
75932;SDS011;64803;52.356;5.310;2023-03-08T12:40:45;24.02;;;9.15;;
75932;SDS011;64803;52.356;5.310;2023-03-08T12:45:45;24.42;;;7.38;;
75932;SDS011;64803;52.356;5.310;2023-03-08T12:59:01;23.33;;;8.00;;
75932;SDS011;64803;52.356;5.310;2023-03-08T13:04:41;26.42;;;7.97;;
75932;SDS011;64803;52.356;5.310;2023-03-08T13:07:08;18.23;;;6.72;;
75932;SDS011;64803;52.356;5.310;2023-03-08T13:14:38;22.17;;;8.35;;
75932;SDS011;64803;52.356;5.310;2023-03-08T13:22:48;20.48;;;7.03;;
75932;SDS011;64803;52.356;5.310;2023-03-08T13:28:03;12.98;;;3.20;;
75932;SDS011;64803;52.356;5.310;2023-03-08T13:30:35;19.05;;;6.35;;
75932;SDS011;64803;52.356;5.310;2023-03-08T13:33:07;21.80;;;7.60;;
75932;SDS011;64803;52.356;5.310;2023-03-08T13:38:20;13.95;;;5.72;;
75932;SDS011;64803;52.356;5.310;2023-03-08T13:40:51;21.73;;;7.28;;
75932;SDS011;64803;52.356;5.310;2023-03-08T13:43:19;18.70;;;6.93;;
75932;SDS011;64803;52.356;5.310;2023-03-08T13:45:51;25.30;;;7.93;;
75932;SDS011;64803;52.356;5.310;2023-03-08T13:48:19;10.43;;;3.67;;
75932;SDS011;64803;52.356;5.310;2023-03-08T13:53:21;16.45;;;6.38;;
75932;SDS011;64803;52.356;5.310;2023-03-08T13:55:51;18.48;;;5.97;;
75932;SDS011;64803;52.356;5.310;2023-03-08T13:58:25;11.80;;;4.10;;
75932;SDS011;64803;52.356;5.310;2023-03-08T14:01:09;15.95;;;5.22;;
75932;SDS011;64803;52.356;5.310;2023-03-08T14:03:37;23.85;;;5.43;;
75932;SDS011;64803;52.356;5.310;2023-03-08T14:06:17;16.50;;;6.00;;
75932;SDS011;64803;52.356;5.310;2023-03-08T14:08:44;16.38;;;4.85;;
75932;SDS011;64803;52.356;5.310;2023-03-08T14:11:13;14.18;;;6.03;;
75932;SDS011;64803;52.356;5.310;2023-03-08T14:13:44;18.15;;;5.10;;
75932;SDS011;64803;52.356;5.310;2023-03-08T14:16:27;17.50;;;6.75;;
75932;SDS011;64803;52.356;5.310;2023-03-08T14:18:58;16.98;;;5.20;;
75932;SDS011;64803;52.356;5.310;2023-03-08T14:21:33;15.20;;;5.80;;
75932;SDS011;64803;52.356;5.310;2023-03-08T14:24:00;16.13;;;3.58;;
75932;SDS011;64803;52.356;5.310;2023-03-08T14:26:38;16.20;;;5.22;;
75932;SDS011;64803;52.356;5.310;2023-03-08T14:29:10;14.63;;;4.60;;
75932;SDS011;64803;52.356;5.310;2023-03-08T14:31:37;10.85;;;4.82;;
75932;SDS011;64803;52.356;5.310;2023-03-08T14:34:14;14.57;;;4.90;;
75932;SDS011;64803;52.356;5.310;2023-03-08T14:36:50;13.60;;;4.68;;
75932;SDS011;64803;52.356;5.310;2023-03-08T14:39:19;15.57;;;4.13;;
75932;SDS011;64803;52.356;5.310;2023-03-08T14:41:45;12.15;;;4.47;;
75932;SDS011;64803;52.356;5.310;2023-03-08T14:44:26;10.65;;;4.18;;
75932;SDS011;64803;52.356;5.310;2023-03-08T14:46:54;10.98;;;3.92;;
75932;SDS011;64803;52.356;5.310;2023-03-08T14:49:25;11.75;;;4.28;;
75932;SDS011;64803;52.356;5.310;2023-03-08T14:51:53;10.20;;;3.75;;
75932;SDS011;64803;52.356;5.310;2023-03-08T14:54:28;9.15;;;3.28;;
75932;SDS011;64803;52.356;5.310;2023-03-08T14:56:58;10.88;;;4.45;;
75932;SDS011;64803;52.356;5.310;2023-03-08T14:59:27;11.23;;;3.22;;
75932;SDS011;64803;52.356;5.310;2023-03-08T15:01:53;6.38;;;2.30;;
75932;SDS011;64803;52.356;5.310;2023-03-08T15:04:23;13.30;;;3.65;;
75932;SDS011;64803;52.356;5.310;2023-03-08T15:06:50;10.60;;;3.90;;
75932;SDS011;64803;52.356;5.310;2023-03-08T15:09:19;12.93;;;3.55;;
75932;SDS011;64803;52.356;5.310;2023-03-08T15:11:46;12.80;;;3.05;;
75932;SDS011;64803;52.356;5.310;2023-03-08T15:14:15;9.55;;;3.47;;
75932;SDS011;64803;52.356;5.310;2023-03-08T15:16:41;12.52;;;4.50;;
75932;SDS011;64803;52.356;5.310;2023-03-08T15:19:07;13.27;;;5.13;;
75932;SDS011;64803;52.356;5.310;2023-03-08T15:21:34;11.77;;;3.67;;
75932;SDS011;64803;52.356;5.310;2023-03-08T15:24:01;10.93;;;3.92;;
75932;SDS011;64803;52.356;5.310;2023-03-08T15:26:29;14.05;;;4.60;;
75932;SDS011;64803;52.356;5.310;2023-03-08T15:28:59;11.70;;;4.25;;
75932;SDS011;64803;52.356;5.310;2023-03-08T15:31:29;12.15;;;4.38;;
75932;SDS011;64803;52.356;5.310;2023-03-08T15:33:56;11.20;;;3.78;;
75932;SDS011;64803;52.356;5.310;2023-03-08T15:36:22;13.63;;;5.20;;
75932;SDS011;64803;52.356;5.310;2023-03-08T15:38:48;11.73;;;4.80;;
75932;SDS011;64803;52.356;5.310;2023-03-08T15:41:14;11.95;;;4.30;;
75932;SDS011;64803;52.356;5.310;2023-03-08T15:43:41;11.00;;;3.05;;
75932;SDS011;64803;52.356;5.310;2023-03-08T15:46:11;9.63;;;3.50;;
75932;SDS011;64803;52.356;5.310;2023-03-08T15:48:37;15.07;;;4.38;;
75932;SDS011;64803;52.356;5.310;2023-03-08T15:51:04;9.20;;;3.25;;
75932;SDS011;64803;52.356;5.310;2023-03-08T15:53:30;9.13;;;3.15;;
75932;SDS011;64803;52.356;5.310;2023-03-08T15:55:56;9.85;;;3.03;;
75932;SDS011;64803;52.356;5.310;2023-03-08T15:58:22;11.43;;;3.63;;
75932;SDS011;64803;52.356;5.310;2023-03-08T16:00:48;13.68;;;4.07;;
75932;SDS011;64803;52.356;5.310;2023-03-08T16:03:14;13.18;;;5.32;;
75932;SDS011;64803;52.356;5.310;2023-03-08T16:05:50;15.32;;;5.05;;
75932;SDS011;64803;52.356;5.310;2023-03-08T16:08:16;11.60;;;3.83;;
75932;SDS011;64803;52.356;5.310;2023-03-08T16:10:43;17.55;;;5.57;;
75932;SDS011;64803;52.356;5.310;2023-03-08T16:13:10;16.35;;;5.75;;
75932;SDS011;64803;52.356;5.310;2023-03-08T16:15:40;18.30;;;6.32;;
75932;SDS011;64803;52.356;5.310;2023-03-08T16:18:06;18.23;;;5.55;;
75932;SDS011;64803;52.356;5.310;2023-03-08T16:20:32;19.77;;;6.25;;